Time;durP1;ratioP1;P1;durP2;ratioP2;P2;SDS_P1;SDS_P2;PMS_P1;PMS_P2;Temp;Humidity;BMP_temperature;BMP_pressure;BME280_temperature;BME280_humidity;BME280_pressure;Samples;Min_cycle;Max_cycle;Signal;HPM_P1;HPM_P2
2022/05/07 00:03:20;;;;;;;9.30;4.10;;;23.50;56.60;;;;;;219395;1273;24284;-57
2022/05/07 00:08:24;;;;;;;11.60;4.10;;;23.50;56.80;;;;;;219596;1271;22537;-58
2022/05/07 00:13:29;;;;;;;12.00;4.30;;;23.50;56.60;;;;;;219414;1271;25400;-57
2022/05/07 00:18:32;;;;;;;11.50;4.50;;;23.50;56.80;;;;;;219750;1273;22557;-57
2022/05/07 00:23:37;;;;;;;8.50;3.70;;;23.50;56.70;;;;;;219875;1271;25439;-54
2022/05/07 00:28:41;;;;;;;13.00;4.60;;;23.50;56.60;;;;;;220099;1271;25469;-58
2022/05/07 00:33:44;;;;;;;8.50;4.30;;;23.40;56.60;;;;;;219696;1273;22590;-57
2022/05/07 00:38:48;;;;;;;9.10;4.70;;;23.50;56.70;;;;;;219903;1273;25563;-56
2022/05/07 00:43:52;;;;;;;9.60;3.80;;;23.40;56.40;;;;;;219589;1273;22731;-57
2022/05/07 00:48:57;;;;;;;7.90;3.90;;;23.30;56.80;;;;;;219842;1273;25356;-58
2022/05/07 00:54:07;;;;;;;9.50;3.80;;;23.30;57.00;;;;;;219530;1273;24256;-55
2022/05/07 00:59:12;;;;;;;10.30;4.50;;;23.30;56.40;;;;;;219717;1274;22528;-54
2022/05/07 01:04:16;;;;;;;9.90;4.00;;;23.30;56.40;;;;;;219462;1273;22608;-56
2022/05/07 01:09:20;;;;;;;11.90;4.70;;;23.30;56.70;;;;;;219669;1273;22538;-59
2022/05/07 01:14:25;;;;;;;10.00;3.70;;;23.30;56.50;;;;;;219758;1273;22541;-54
2022/05/07 01:19:29;;;;;;;8.70;4.00;;;23.20;56.30;;;;;;219648;1273;26495;-56
2022/05/07 01:24:33;;;;;;;8.10;3.90;;;23.20;56.10;;;;;;219805;1273;22637;-55
2022/05/07 01:29:41;;;;;;;11.30;3.90;;;23.20;56.40;;;;;;220005;1273;24253;-55
2022/05/07 01:34:45;;;;;;;8.40;4.00;;;23.20;56.20;;;;;;219520;1274;26497;-57
2022/05/07 01:39:54;;;;;;;12.20;3.80;;;23.10;55.80;;;;;;219600;1273;22563;-56
2022/05/07 01:45:01;;;;;;;7.50;3.60;;;23.20;56.30;;;;;;219122;1275;22544;-58
2022/05/07 01:50:06;;;;;;;7.20;3.60;;;23.10;56.20;;;;;;219567;1273;24284;-55
2022/05/07 01:55:12;;;;;;;7.70;3.60;;;23.10;56.30;;;;;;219361;1273;22604;-55
2022/05/07 02:00:18;;;;;;;9.20;4.10;;;23.10;56.30;;;;;;219720;1273;22528;-55
2022/05/07 02:05:24;;;;;;;9.00;4.00;;;23.00;56.10;;;;;;219774;1273;24242;-55
2022/05/07 02:10:28;;;;;;;7.50;3.60;;;23.00;56.20;;;;;;219772;1273;26594;-58
2022/05/07 02:15:35;;;;;;;8.60;3.60;;;23.00;56.30;;;;;;219633;1271;25552;-57
2022/05/07 02:20:39;;;;;;;10.20;4.20;;;23.00;56.30;;;;;;219659;1271;24309;-59
2022/05/07 02:25:43;;;;;;;9.10;4.40;;;23.00;56.30;;;;;;219556;1273;25546;-59
2022/05/07 02:30:46;;;;;;;5.70;3.40;;;23.00;56.30;;;;;;219514;1273;24321;-54
2022/05/07 02:35:51;;;;;;;6.50;3.90;;;23.00;56.30;;;;;;219508;1273;22532;-56
2022/05/07 02:46:17;;;;;;;6.20;4.00;;;22.90;56.50;;;;;;219776;1273;25448;-58
2022/05/07 02:51:21;;;;;;;7.70;3.90;;;22.90;56.70;;;;;;219423;1273;25583;-55
2022/05/07 02:56:24;;;;;;;6.80;4.00;;;22.90;56.50;;;;;;219703;1273;22820;-58
2022/05/07 03:01:30;;;;;;;6.40;4.00;;;22.90;56.60;;;;;;219582;1273;22541;-58
2022/05/07 03:06:34;;;;;;;6.50;4.00;;;22.90;56.50;;;;;;219976;1273;22745;-59
2022/05/07 03:11:38;;;;;;;7.50;4.10;;;22.90;56.60;;;;;;219897;1273;22614;-58
2022/05/07 03:16:44;;;;;;;8.30;3.90;;;22.90;56.60;;;;;;219689;1273;23944;-60
2022/05/07 03:21:48;;;;;;;8.80;4.40;;;22.80;56.90;;;;;;219922;1273;23920;-54
2022/05/07 03:26:57;;;;;;;8.40;4.40;;;22.80;56.90;;;;;;219995;1273;22544;-58
2022/05/07 03:32:00;;;;;;;7.60;3.80;;;22.80;56.60;;;;;;219525;1273;22560;-60
2022/05/07 03:37:04;;;;;;;6.50;3.70;;;22.80;56.70;;;;;;219959;1273;22562;-61
2022/05/07 03:42:09;;;;;;;8.70;4.00;;;22.80;56.70;;;;;;219516;1273;26451;-57
2022/05/07 03:47:12;;;;;;;9.50;3.80;;;22.70;57.20;;;;;;219309;1273;25334;-56
2022/05/07 03:57:43;;;;;;;7.00;3.90;;;22.70;56.60;;;;;;219583;1273;25385;-57
2022/05/07 04:02:48;;;;;;;9.70;4.70;;;22.70;57.00;;;;;;219608;1273;22552;-57
2022/05/07 04:08:01;;;;;;;6.40;4.20;;;22.80;56.70;;;;;;219585;1273;22543;-56
2022/05/07 04:13:06;;;;;;;9.40;4.60;;;22.80;56.70;;;;;;219728;1273;24221;-59
2022/05/07 04:18:11;;;;;;;7.80;4.70;;;22.80;56.70;;;;;;219905;1273;22541;-57
2022/05/07 04:23:15;;;;;;;7.00;4.30;;;22.70;57.30;;;;;;219712;1271;22685;-57
2022/05/07 04:28:21;;;;;;;7.70;4.60;;;22.80;56.80;;;;;;219896;1272;23747;-59
2022/05/07 04:33:26;;;;;;;6.80;4.10;;;22.70;56.70;;;;;;219876;1271;22624;-61
2022/05/07 04:38:32;;;;;;;8.30;4.90;;;22.70;56.70;;;;;;219661;1272;22601;-54
2022/05/07 04:43:36;;;;;;;8.70;4.70;;;22.70;56.70;;;;;;219906;1271;23948;-56
2022/05/07 04:48:41;;;;;;;6.40;4.30;;;22.70;56.60;;;;;;219806;1273;22572;-60
2022/05/07 04:53:45;;;;;;;6.90;4.60;;;22.70;56.70;;;;;;219946;1271;25481;-57
2022/05/07 04:58:54;;;;;;;6.60;4.30;;;22.70;56.90;;;;;;219537;1273;22780;-56
2022/05/07 05:04:04;;;;;;;7.00;4.20;;;22.70;56.80;;;;;;219609;1273;22568;-58
2022/05/07 05:09:12;;;;;;;10.70;4.50;;;22.70;56.60;;;;;;219855;1271;22771;-57
2022/05/07 05:19:45;;;;;;;6.90;4.20;;;22.70;56.70;;;;;;219928;1273;22557;-57
2022/05/07 05:24:56;;;;;;;8.40;4.10;;;22.70;56.50;;;;;;220039;1272;22744;-58
2022/05/07 05:30:02;;;;;;;8.30;4.30;;;22.70;56.40;;;;;;219641;1271;22634;-56
2022/05/07 05:35:08;;;;;;;9.20;4.70;;;22.70;56.50;;;;;;219847;1273;23771;-56
2022/05/07 05:40:16;;;;;;;11.40;5.00;;;22.70;56.50;;;;;;219898;1272;26497;-55
2022/05/07 05:45:27;;;;;;;9.30;4.70;;;22.70;56.80;;;;;;219588;1273;23973;-54
2022/05/07 05:50:31;;;;;;;8.30;4.30;;;22.70;56.80;;;;;;219368;1273;23115;-55
2022/05/07 05:55:36;;;;;;;6.00;3.90;;;22.70;56.50;;;;;;219666;1271;22534;-54
2022/05/07 06:00:40;;;;;;;7.20;4.40;;;22.70;56.50;;;;;;219948;1271;25124;-57
2022/05/07 06:05:44;;;;;;;6.70;3.90;;;22.70;56.60;;;;;;219893;1271;24256;-56
2022/05/07 06:10:52;;;;;;;7.50;4.00;;;22.70;56.60;;;;;;219816;1271;25591;-56
2022/05/07 06:15:56;;;;;;;6.90;4.00;;;22.70;56.70;;;;;;220081;1270;24255;-57
2022/05/07 06:21:02;;;;;;;6.20;4.00;;;22.70;56.70;;;;;;219898;1271;25992;-56
2022/05/07 06:31:36;;;;;;;6.80;3.50;;;22.70;56.60;;;;;;219911;1273;25236;-58
2022/05/07 06:36:45;;;;;;;6.80;4.40;;;22.70;56.60;;;;;;219509;1271;22556;-61
2022/05/07 06:41:50;;;;;;;6.90;4.00;;;22.70;56.60;;;;;;219495;1273;25320;-54
2022/05/07 06:46:56;;;;;;;8.30;4.10;;;22.80;57.10;;;;;;219705;1271;25346;-57
2022/05/07 06:52:01;;;;;;;9.80;4.00;;;22.70;57.40;;;;;;219572;1273;25360;-56
2022/05/07 06:57:05;;;;;;;11.80;4.00;;;22.70;57.20;;;;;;219916;1270;22837;-58
2022/05/07 07:02:18;;;;;;;7.60;4.40;;;22.80;57.00;;;;;;220020;1268;24072;-58
2022/05/07 07:07:27;;;;;;;8.10;4.10;;;22.80;57.00;;;;;;219969;1268;22764;-58
2022/05/07 07:12:34;;;;;;;6.80;3.80;;;22.80;56.70;;;;;;219938;1267;22576;-55
2022/05/07 07:17:44;;;;;;;6.10;3.70;;;22.80;56.60;;;;;;219981;1268;24230;-56
2022/05/07 07:22:51;;;;;;;10.10;4.00;;;22.90;56.50;;;;;;219886;1267;22848;-55
2022/05/07 07:27:57;;;;;;;9.90;4.80;;;22.90;56.70;;;;;;219853;1268;23026;-57
2022/05/07 07:33:02;;;;;;;9.40;4.50;;;22.90;56.60;;;;;;219693;1268;22564;-53
2022/05/07 07:38:05;;;;;;;6.10;3.90;;;22.90;56.60;;;;;;219990;1268;25279;-58
2022/05/07 07:43:10;;;;;;;7.10;4.10;;;22.90;56.60;;;;;;219889;1267;24081;-57
2022/05/07 07:48:14;;;;;;;9.20;3.50;;;22.90;56.70;;;;;;219841;1267;22720;-59
2022/05/07 07:53:20;;;;;;;9.50;4.60;;;22.90;56.70;;;;;;219957;1267;22704;-56
2022/05/07 07:58:26;;;;;;;8.40;4.10;;;23.00;56.70;;;;;;219974;1269;22538;-60
2022/05/07 08:03:33;;;;;;;8.50;3.90;;;23.00;56.70;;;;;;219808;1267;24206;-58
2022/05/07 08:14:02;;;;;;;11.90;4.30;;;23.00;56.70;;;;;;219951;1267;25337;-54
2022/05/07 08:19:09;;;;;;;6.60;3.90;;;23.10;57.00;;;;;;219561;1270;22543;-57
2022/05/07 08:24:14;;;;;;;5.80;3.80;;;23.10;56.90;;;;;;219575;1267;24240;-58
2022/05/07 08:29:20;;;;;;;10.10;3.80;;;23.20;56.80;;;;;;219936;1267;22736;-57
2022/05/07 08:34:29;;;;;;;9.90;3.80;;;23.20;57.10;;;;;;219784;1268;22548;-57
2022/05/07 08:39:42;;;;;;;12.20;3.90;;;23.30;57.30;;;;;;219775;1267;23233;-58
2022/05/07 08:44:46;;;;;;;9.70;5.00;;;23.30;56.60;;;;;;220009;1267;24432;-58
2022/05/07 08:49:53;;;;;;;8.40;4.20;;;23.30;53.00;;;;;;219788;1270;22553;-59
2022/05/07 08:54:58;;;;;;;12.70;4.30;;;23.20;54.00;;;;;;219715;1268;25352;-57
2022/05/07 09:00:05;;;;;;;8.90;4.30;;;23.30;54.40;;;;;;221338;1268;22743;-55
2022/05/07 09:05:47;;;;;;;8.40;4.10;;;23.40;54.20;;;;;;221598;1270;22544;-59
2022/05/07 09:11:06;;;;;;;7.40;3.90;;;23.40;54.00;;;;;;219884;1270;22540;-57
2022/05/07 09:16:15;;;;;;;15.30;4.50;;;23.50;53.90;;;;;;219739;1270;22584;-61
2022/05/07 09:21:29;;;;;;;6.00;3.40;;;23.50;53.50;;;;;;219598;1270;23759;-58
2022/05/07 09:26:39;;;;;;;10.40;4.40;;;23.50;53.10;;;;;;219926;1270;24035;-58
2022/05/07 09:31:43;;;;;;;7.90;3.70;;;23.50;53.10;;;;;;219860;1270;25548;-59
2022/05/07 09:36:47;;;;;;;13.30;4.00;;;23.60;52.90;;;;;;220117;1270;22552;-59
2022/05/07 09:41:54;;;;;;;10.30;4.40;;;23.60;52.60;;;;;;219858;1268;22564;-57
2022/05/07 09:46:59;;;;;;;11.20;3.70;;;23.60;53.10;;;;;;219960;1269;22825;-59
2022/05/07 09:52:10;;;;;;;9.40;3.70;;;23.60;52.80;;;;;;219922;1268;22745;-57
2022/05/07 09:57:32;;;;;;;7.80;3.90;;;23.70;52.60;;;;;;219857;1270;25237;-59
2022/05/07 10:03:03;;;;;;;18.20;4.20;;;23.70;51.90;;;;;;219722;1268;25277;-55
2022/05/07 10:08:50;;;;;;;10.60;3.70;;;23.70;51.40;;;;;;219904;1270;28249;-52
2022/05/07 10:13:55;;;;;;;10.90;4.00;;;23.70;51.30;;;;;;219557;1270;25974;-56
2022/05/07 10:19:18;;;;;;;6.60;3.50;;;23.80;51.30;;;;;;219677;1270;22645;-58
2022/05/07 10:24:22;;;;;;;10.30;3.40;;;23.80;51.30;;;;;;219632;1270;22554;-56
2022/05/07 10:29:29;;;;;;;9.00;3.50;;;23.90;50.90;;;;;;219916;1270;22527;-56
2022/05/07 10:34:32;;;;;;;8.20;3.60;;;23.90;50.80;;;;;;219620;1270;25244;-61
2022/05/07 10:39:36;;;;;;;12.30;4.20;;;23.90;50.70;;;;;;219378;1271;25642;-55
2022/05/07 10:44:41;;;;;;;10.20;3.90;;;23.80;49.00;;;;;;219444;1270;22779;-59
2022/05/07 10:49:54;;;;;;;7.10;3.30;;;23.90;47.40;;;;;;219873;1270;22700;-59
2022/05/07 10:55:16;;;;;;;20.30;3.50;;;23.90;47.70;;;;;;220057;1270;22750;-55
2022/05/07 11:00:21;;;;;;;8.30;2.80;;;24.00;48.00;;;;;;219522;1270;24297;-58
2022/05/07 11:05:35;;;;;;;7.30;3.50;;;24.00;47.90;;;;;;219614;1270;24230;-55
2022/05/07 11:10:39;;;;;;;9.70;3.50;;;24.00;46.60;;;;;;219958;1270;24329;-56
2022/05/07 11:15:43;;;;;;;10.60;3.20;;;24.10;46.90;;;;;;220311;1270;22553;-54
2022/05/07 11:21:01;;;;;;;7.80;3.10;;;24.00;46.00;;;;;;219751;1270;22547;-57
2022/05/07 11:26:13;;;;;;;5.20;2.80;;;24.10;45.40;;;;;;220055;1270;25549;-54
2022/05/07 11:31:31;;;;;;;;;;;24.00;45.50;;;;;;220120;1269;26171;-55
2022/05/07 11:36:38;;;;;;;8.00;2.60;;;24.00;45.80;;;;;;219997;1268;22562;-56
2022/05/07 11:41:41;;;;;;;5.90;3.10;;;24.00;45.90;;;;;;219958;1268;22529;-55
2022/05/07 11:46:56;;;;;;;;;;;23.90;45.00;;;;;;219959;1270;24285;-52
2022/05/07 11:52:10;;;;;;;7.80;2.80;;;23.90;44.90;;;;;;219562;1270;24051;-52
2022/05/07 11:57:29;;;;;;;9.60;2.90;;;23.80;44.30;;;;;;220816;1270;22560;-55
2022/05/07 12:02:39;;;;;;;10.40;3.20;;;23.80;43.10;;;;;;219954;1268;22550;-56
2022/05/07 12:07:47;;;;;;;16.00;3.30;;;23.90;43.80;;;;;;219879;1270;22670;-58
2022/05/07 12:12:50;;;;;;;12.00;3.60;;;23.90;42.10;;;;;;220335;1268;22600;-55
2022/05/07 12:17:56;;;;;;;14.40;3.30;;;23.90;42.10;;;;;;220085;1268;24642;-57
2022/05/07 12:33:44;;;;;;;6.30;2.50;;;24.10;43.10;;;;;;220220;1270;25632;-57
2022/05/07 12:38:48;;;;;;;5.90;3.10;;;24.10;44.00;;;;;;220087;1270;24734;-56
2022/05/07 12:43:54;;;;;;;5.60;2.90;;;24.00;43.40;;;;;;220506;1270;25454;-56
2022/05/07 12:48:58;;;;;;;6.60;3.00;;;24.00;45.00;;;;;;220382;1270;25436;-55
2022/05/07 12:54:03;;;;;;;5.90;2.90;;;24.00;44.70;;;;;;220023;1271;25599;-52
2022/05/07 12:59:08;;;;;;;7.80;3.00;;;23.90;44.90;;;;;;220186;1270;23211;-54
2022/05/07 13:04:12;;;;;;;5.70;2.80;;;23.90;45.00;;;;;;220391;1268;22551;-56
2022/05/07 13:09:15;;;;;;;5.00;2.90;;;23.90;45.00;;;;;;220255;1270;25455;-54
2022/05/07 13:14:40;;;;;;;6.00;2.90;;;23.90;44.50;;;;;;219824;1272;24487;-56
2022/05/07 13:19:44;;;;;;;7.10;2.90;;;23.80;44.60;;;;;;220225;1268;22595;-56
2022/05/07 13:24:48;;;;;;;6.10;3.30;;;23.80;44.20;;;;;;219830;1270;22653;-55
2022/05/07 13:29:52;;;;;;;7.70;3.20;;;23.80;44.00;;;;;;220155;1271;22551;-55
2022/05/07 13:34:55;;;;;;;7.60;3.50;;;23.80;43.70;;;;;;220135;1271;24266;-56
2022/05/07 13:39:59;;;;;;;6.70;3.20;;;23.80;43.70;;;;;;220100;1269;24278;-52
2022/05/07 13:45:10;;;;;;;6.30;2.90;;;23.80;43.40;;;;;;220198;1270;22949;-54
2022/05/07 13:50:13;;;;;;;4.60;2.80;;;23.80;44.20;;;;;;220133;1271;22605;-57
2022/05/07 13:55:20;;;;;;;5.10;3.30;;;23.70;43.90;;;;;;220196;1271;22554;-57
2022/05/07 14:00:28;;;;;;;5.50;2.80;;;23.70;44.00;;;;;;219987;1270;24409;-56
2022/05/07 14:05:54;;;;;;;8.40;3.10;;;23.80;44.30;;;;;;220250;1271;24322;-58
2022/05/07 14:11:36;;;;;;;7.10;2.80;;;23.80;43.00;;;;;;220137;1271;22550;-55
2022/05/07 14:16:44;;;;;;;7.60;3.30;;;23.80;44.00;;;;;;220047;1271;22557;-56
2022/05/07 14:21:52;;;;;;;9.50;3.10;;;23.80;44.00;;;;;;220096;1271;25549;-56
2022/05/07 14:26:59;;;;;;;8.80;3.10;;;23.80;44.20;;;;;;220063;1270;22675;-54
2022/05/07 14:32:10;;;;;;;7.20;3.10;;;23.80;43.90;;;;;;220335;1271;24348;-55
2022/05/07 14:37:24;;;;;;;5.30;3.00;;;23.80;44.30;;;;;;219918;1268;26721;-53
2022/05/07 14:42:30;;;;;;;5.00;2.80;;;23.80;44.70;;;;;;219899;1268;22580;-55
2022/05/07 14:47:38;;;;;;;6.50;3.00;;;23.80;44.70;;;;;;220121;1268;22597;-60
2022/05/07 14:52:44;;;;;;;5.50;2.80;;;23.70;45.00;;;;;;219979;1269;22556;-57
2022/05/07 14:57:49;;;;;;;6.10;2.80;;;23.70;44.60;;;;;;219937;1271;23080;-56
2022/05/07 15:02:58;;;;;;;5.60;3.00;;;23.70;44.30;;;;;;220222;1271;23029;-56
2022/05/07 15:13:27;;;;;;;4.80;2.50;;;23.70;44.40;;;;;;219638;1272;22536;-57
2022/05/07 15:18:34;;;;;;;4.80;2.70;;;23.70;44.30;;;;;;220051;1268;22570;-56
2022/05/07 15:23:43;;;;;;;5.10;3.00;;;23.70;44.00;;;;;;220138;1273;24216;-52
2022/05/07 15:28:47;;;;;;;3.70;2.50;;;23.70;43.90;;;;;;220251;1268;22584;-55
2022/05/07 15:39:18;;;;;;;5.00;2.80;;;23.70;44.20;;;;;;220052;1271;25251;-56
2022/05/07 15:44:22;;;;;;;5.80;2.90;;;23.70;43.90;;;;;;219790;1271;22629;-57
2022/05/07 15:49:26;;;;;;;5.50;2.60;;;23.70;43.90;;;;;;220023;1271;23538;-56
2022/05/07 15:54:35;;;;;;;6.60;3.00;;;23.70;44.10;;;;;;220001;1271;25282;-57
2022/05/07 15:59:49;;;;;;;5.20;3.00;;;23.70;44.20;;;;;;219815;1272;22593;-53
2022/05/07 16:04:57;;;;;;;3.50;2.40;;;23.60;44.40;;;;;;219975;1272;25814;-55
2022/05/07 16:10:01;;;;;;;5.40;2.70;;;23.60;44.40;;;;;;219890;1272;25189;-53
2022/05/07 16:15:06;;;;;;;4.80;3.10;;;23.60;44.60;;;;;;220034;1272;22561;-56
2022/05/07 16:20:15;;;;;;;4.90;2.80;;;23.60;44.30;;;;;;219845;1271;22846;-58
2022/05/07 16:25:22;;;;;;;4.70;2.40;;;23.60;44.30;;;;;;219989;1271;22543;-55
2022/05/07 16:30:28;;;;;;;5.30;2.50;;;23.60;44.40;;;;;;219864;1271;25248;-54
2022/05/07 16:35:37;;;;;;;3.30;2.40;;;23.60;44.30;;;;;;220291;1268;22531;-54
2022/05/07 16:40:42;;;;;;;4.50;2.60;;;23.60;44.60;;;;;;219993;1271;22626;-55
2022/05/07 16:45:46;;;;;;;5.70;2.70;;;23.60;44.50;;;;;;220375;1268;25346;-52
2022/05/07 16:50:51;;;;;;;3.30;2.30;;;23.60;44.40;;;;;;219870;1268;22609;-55
2022/05/07 16:55:56;;;;;;;4.00;2.20;;;23.60;44.50;;;;;;220090;1268;22567;-57
2022/05/07 17:01:02;;;;;;;4.60;2.20;;;23.50;44.10;;;;;;220244;1268;25657;-56
2022/05/07 17:06:06;;;;;;;3.70;2.50;;;23.60;44.00;;;;;;220262;1268;24335;-54
2022/05/07 17:11:12;;;;;;;4.20;2.40;;;23.50;43.80;;;;;;220056;1268;23870;-58
2022/05/07 17:16:17;;;;;;;4.70;2.40;;;23.50;43.90;;;;;;220335;1268;22553;-55
2022/05/07 17:21:26;;;;;;;5.20;2.60;;;23.50;43.60;;;;;;220141;1268;25185;-53
2022/05/07 17:26:37;;;;;;;3.90;2.20;;;23.50;43.70;;;;;;220006;1268;24310;-57
2022/05/07 17:31:46;;;;;;;3.10;2.30;;;23.50;43.30;;;;;;219990;1268;24304;-57
2022/05/07 17:36:51;;;;;;;4.20;2.10;;;23.50;43.10;;;;;;220486;1268;23551;-53
2022/05/07 17:42:08;;;;;;;3.70;2.30;;;23.50;43.20;;;;;;219986;1270;24363;-55
2022/05/07 17:47:14;;;;;;;5.40;2.40;;;23.50;43.10;;;;;;219761;1268;22704;-56
2022/05/07 17:52:17;;;;;;;6.50;2.40;;;23.40;43.10;;;;;;219833;1269;22539;-54
2022/05/07 17:57:24;;;;;;;4.50;2.60;;;23.50;43.20;;;;;;219896;1268;24068;-56
2022/05/07 18:02:31;;;;;;;5.00;2.10;;;23.50;43.20;;;;;;220519;1267;22820;-56
2022/05/07 18:07:39;;;;;;;4.20;2.70;;;23.40;43.20;;;;;;220468;1268;22722;-57
2022/05/07 18:12:46;;;;;;;6.50;2.60;;;23.40;43.40;;;;;;220204;1267;22547;-53
2022/05/07 18:17:50;;;;;;;4.00;2.50;;;23.40;43.50;;;;;;220064;1267;22535;-51
2022/05/07 18:22:55;;;;;;;3.70;2.40;;;23.40;43.50;;;;;;220071;1268;24294;-54
2022/05/07 18:28:01;;;;;;;4.10;2.70;;;23.40;43.70;;;;;;219955;1267;22597;-53
2022/05/07 18:33:12;;;;;;;5.20;2.80;;;23.30;43.80;;;;;;220158;1267;25411;-55
2022/05/07 18:43:56;;;;;;;5.40;2.70;;;23.30;43.70;;;;;;220089;1268;22647;-57
2022/05/07 18:49:02;;;;;;;5.50;2.70;;;23.30;43.80;;;;;;219852;1268;22615;-54
2022/05/07 18:54:07;;;;;;;5.90;3.00;;;23.30;43.90;;;;;;219883;1268;26170;-54
2022/05/07 18:59:14;;;;;;;6.40;2.60;;;23.30;44.50;;;;;;219797;1268;22657;-55
2022/05/07 19:04:20;;;;;;;5.60;2.80;;;23.30;44.20;;;;;;220032;1268;22532;-55
2022/05/07 19:09:24;;;;;;;7.10;3.40;;;23.20;44.10;;;;;;219908;1268;24218;-57
2022/05/07 19:14:28;;;;;;;15.00;4.00;;;23.20;44.20;;;;;;219844;1270;24306;-55
2022/05/07 19:19:32;;;;;;;8.60;3.40;;;23.20;44.40;;;;;;219781;1268;250829;-56
2022/05/07 19:24:39;;;;;;;7.90;2.90;;;23.20;45.30;;;;;;219911;1268;22712;-55
2022/05/07 19:29:44;;;;;;;9.40;3.60;;;23.30;46.20;;;;;;219647;1270;24185;-55
2022/05/07 19:34:48;;;;;;;15.10;4.20;;;23.30;46.60;;;;;;220450;1268;22704;-51
2022/05/07 19:39:52;;;;;;;5.80;2.90;;;23.30;47.00;;;;;;219837;1268;22759;-50
2022/05/07 19:44:56;;;;;;;15.00;4.50;;;23.30;47.30;;;;;;219643;1268;26771;-52
2022/05/07 19:50:01;;;;;;;16.00;3.80;;;23.40;47.30;;;;;;219836;1268;22558;-50
2022/05/07 19:55:09;;;;;;;10.70;3.40;;;23.40;49.60;;;;;;219486;1270;25608;-50
2022/05/07 20:00:19;;;;;;;12.50;3.70;;;23.40;48.70;;;;;;219862;1268;24345;-49
2022/05/07 20:05:23;;;;;;;22.30;5.40;;;23.40;48.60;;;;;;220093;1268;22766;-52
2022/05/07 20:10:34;;;;;;;15.50;4.90;;;23.50;52.20;;;;;;220149;1268;24091;-51
2022/05/07 20:15:42;;;;;;;17.90;4.00;;;23.50;52.80;;;;;;220277;1268;25590;-51
2022/05/07 20:26:11;;;;;;;12.20;4.10;;;23.50;52.50;;;;;;220396;1268;25244;-55
2022/05/07 20:31:19;;;;;;;13.70;4.10;;;23.50;52.70;;;;;;219879;1270;24311;-52
2022/05/07 20:36:25;;;;;;;21.00;5.70;;;23.50;53.30;;;;;;220324;1268;24411;-55
2022/05/07 20:41:31;;;;;;;20.90;5.10;;;23.50;57.50;;;;;;220020;1268;22767;-47
2022/05/07 20:46:36;;;;;;;16.40;4.60;;;23.50;56.10;;;;;;219724;1268;22564;-53
2022/05/07 20:51:40;;;;;;;15.90;4.00;;;23.50;55.80;;;;;;220028;1268;22818;-53
2022/05/07 20:56:53;;;;;;;21.50;4.70;;;23.50;56.00;;;;;;219662;1267;24313;-51
2022/05/07 21:01:57;;;;;;;24.70;4.10;;;23.50;56.10;;;;;;219949;1268;22551;-51
2022/05/07 21:07:05;;;;;;;10.30;4.20;;;23.50;55.40;;;;;;220186;1268;22583;-51
2022/05/07 21:12:11;;;;;;;10.40;4.10;;;23.50;55.40;;;;;;220087;1268;25261;-50
2022/05/07 21:17:19;;;;;;;20.50;5.40;;;23.50;54.90;;;;;;219853;1270;25328;-45
2022/05/07 21:22:26;;;;;;;14.00;5.10;;;23.50;59.60;;;;;;219705;1270;22773;-49
2022/05/07 21:27:32;;;;;;;13.40;4.60;;;23.50;58.60;;;;;;219849;1268;25197;-49
2022/05/07 21:32:37;;;;;;;11.20;4.20;;;23.50;58.10;;;;;;220112;1268;22698;-50
2022/05/07 21:37:44;;;;;;;14.30;4.30;;;23.50;58.00;;;;;;219463;1268;22576;-48
2022/05/07 21:42:51;;;;;;;15.60;4.90;;;23.50;57.40;;;;;;219798;1268;26563;-52
2022/05/07 21:47:58;;;;;;;11.70;4.50;;;23.50;57.40;;;;;;219578;1270;25368;-53
2022/05/07 21:53:05;;;;;;;15.20;4.30;;;23.50;57.60;;;;;;219986;1268;23961;-51
2022/05/07 21:58:10;;;;;;;13.60;4.10;;;23.50;57.50;;;;;;219825;1270;27785;-50
2022/05/07 22:03:16;;;;;;;12.10;3.70;;;23.50;57.10;;;;;;220102;1268;23051;-50
2022/05/07 22:08:24;;;;;;;9.20;4.30;;;23.50;57.10;;;;;;219929;1267;25370;-52
2022/05/07 22:13:29;;;;;;;10.20;4.00;;;23.50;57.30;;;;;;219894;1268;23447;-50
2022/05/07 22:18:33;;;;;;;10.10;4.10;;;23.40;56.90;;;;;;220037;1268;22551;-51
2022/05/07 22:23:37;;;;;;;10.10;4.30;;;23.40;56.70;;;;;;219650;1268;24232;-51
2022/05/07 22:28:42;;;;;;;7.50;3.70;;;23.40;56.60;;;;;;220196;1268;25313;-50
2022/05/07 22:33:47;;;;;;;10.50;4.10;;;23.50;56.30;;;;;;219935;1268;22718;-49
2022/05/07 22:38:52;;;;;;;10.90;4.00;;;23.40;56.40;;;;;;219993;1268;24094;-51
2022/05/07 22:43:56;;;;;;;7.80;4.30;;;23.40;56.30;;;;;;220064;1268;22608;-50
2022/05/07 22:49:00;;;;;;;7.20;3.80;;;23.40;56.20;;;;;;219980;1268;22701;-49
2022/05/07 22:54:11;;;;;;;8.90;4.10;;;23.40;56.10;;;;;;220229;1268;22667;-49
2022/05/07 22:59:15;;;;;;;9.30;3.70;;;23.50;56.10;;;;;;219959;1270;22537;-52
2022/05/07 23:04:19;;;;;;;6.80;3.80;;;23.40;55.90;;;;;;220032;1268;22544;-50
2022/05/07 23:09:25;;;;;;;6.70;3.80;;;23.50;55.70;;;;;;219955;1268;23936;-53
2022/05/07 23:14:29;;;;;;;5.90;3.60;;;23.40;55.80;;;;;;220592;1268;22534;-48
2022/05/07 23:19:33;;;;;;;10.20;4.00;;;23.40;55.70;;;;;;225935;1267;25493;-51
2022/05/07 23:24:41;;;;;;;11.20;4.40;;;23.40;55.60;;;;;;219873;1267;24307;-59
2022/05/07 23:29:52;;;;;;;7.10;3.90;;;23.40;55.70;;;;;;219922;1268;24432;-51
2022/05/07 23:34:56;;;;;;;11.50;3.80;;;23.40;55.70;;;;;;220048;1268;24297;-50
2022/05/07 23:40:08;;;;;;;5.90;3.80;;;23.30;55.50;;;;;;220017;1268;22625;-47
2022/05/07 23:45:14;;;;;;;9.80;4.20;;;23.30;55.40;;;;;;220170;1268;22550;-49
2022/05/07 23:50:19;;;;;;;5.20;3.20;;;23.30;55.40;;;;;;220517;1268;25619;-49
2022/05/07 23:55:38;;;;;;;7.40;3.40;;;23.20;55.30;;;;;;220492;1268;24995;-48
